sensor_id;sensor_type;location;lat;lon;timestamp;temperature;humidity
38183;DHT22;23991;52.430;10.586;2023-03-14T00:01:11;12.20;77.40
38183;DHT22;23991;52.430;10.586;2023-03-14T00:03:41;12.20;77.50
38183;DHT22;23991;52.430;10.586;2023-03-14T00:06:07;12.10;77.50
38183;DHT22;23991;52.430;10.586;2023-03-14T00:08:34;12.20;77.60
38183;DHT22;23991;52.430;10.586;2023-03-14T00:11:15;12.20;77.60
38183;DHT22;23991;52.430;10.586;2023-03-14T00:17:03;12.20;77.70
38183;DHT22;23991;52.430;10.586;2023-03-14T00:19:29;12.10;77.80
38183;DHT22;23991;52.430;10.586;2023-03-14T00:21:54;12.20;77.80
38183;DHT22;23991;52.430;10.586;2023-03-14T00:24:20;12.10;78.10
38183;DHT22;23991;52.430;10.586;2023-03-14T00:26:45;12.10;78.20
38183;DHT22;23991;52.430;10.586;2023-03-14T00:29:11;12.10;78.40
38183;DHT22;23991;52.430;10.586;2023-03-14T00:31:36;12.10;78.60
38183;DHT22;23991;52.430;10.586;2023-03-14T00:34:02;12.10;78.80
38183;DHT22;23991;52.430;10.586;2023-03-14T00:46:34;12.00;79.60
38183;DHT22;23991;52.430;10.586;2023-03-14T00:49:00;12.00;79.80
38183;DHT22;23991;52.430;10.586;2023-03-14T00:51:25;12.00;79.90
38183;DHT22;23991;52.430;10.586;2023-03-14T00:53:51;11.90;80.00
38183;DHT22;23991;52.430;10.586;2023-03-14T00:56:17;12.00;80.10
38183;DHT22;23991;52.430;10.586;2023-03-14T00:58:42;12.00;80.20
38183;DHT22;23991;52.430;10.586;2023-03-14T01:01:10;12.00;80.10
38183;DHT22;23991;52.430;10.586;2023-03-14T01:03:36;12.00;80.20
38183;DHT22;23991;52.430;10.586;2023-03-14T01:16:15;12.00;79.90
38183;DHT22;23991;52.430;10.586;2023-03-14T01:18:42;12.00;79.80
38183;DHT22;23991;52.430;10.586;2023-03-14T01:21:15;12.00;79.80
38183;DHT22;23991;52.430;10.586;2023-03-14T01:23:42;12.00;79.70
38183;DHT22;23991;52.430;10.586;2023-03-14T01:26:13;12.00;79.60
38183;DHT22;23991;52.430;10.586;2023-03-14T01:28:39;12.00;79.50
38183;DHT22;23991;52.430;10.586;2023-03-14T01:31:07;12.00;79.50
38183;DHT22;23991;52.430;10.586;2023-03-14T01:33:33;11.90;79.50
38183;DHT22;23991;52.430;10.586;2023-03-14T01:35:58;11.90;79.40
38183;DHT22;23991;52.430;10.586;2023-03-14T01:48:12;11.90;79.10
38183;DHT22;23991;52.430;10.586;2023-03-14T01:50:37;11.90;79.10
38183;DHT22;23991;52.430;10.586;2023-03-14T01:53:03;11.90;79.10
38183;DHT22;23991;52.430;10.586;2023-03-14T01:55:29;11.80;79.10
38183;DHT22;23991;52.430;10.586;2023-03-14T01:57:58;11.80;79.10
38183;DHT22;23991;52.430;10.586;2023-03-14T02:00:25;11.80;79.00
38183;DHT22;23991;52.430;10.586;2023-03-14T02:02:53;11.80;79.00
38183;DHT22;23991;52.430;10.586;2023-03-14T02:05:21;11.80;78.90
38183;DHT22;23991;52.430;10.586;2023-03-14T02:17:51;11.80;78.30
38183;DHT22;23991;52.430;10.586;2023-03-14T02:20:42;11.80;78.10
38183;DHT22;23991;52.430;10.586;2023-03-14T02:23:10;11.80;77.90
38183;DHT22;23991;52.430;10.586;2023-03-14T02:25:58;11.80;78.00
38183;DHT22;23991;52.430;10.586;2023-03-14T02:28:25;11.80;77.80
38183;DHT22;23991;52.430;10.586;2023-03-14T02:30:51;11.80;77.70
38183;DHT22;23991;52.430;10.586;2023-03-14T02:33:19;11.80;77.50
38183;DHT22;23991;52.430;10.586;2023-03-14T02:35:56;11.80;77.00
38183;DHT22;23991;52.430;10.586;2023-03-14T02:45:39;11.70;76.20
38183;DHT22;23991;52.430;10.586;2023-03-14T02:48:36;11.80;76.00
38183;DHT22;23991;52.430;10.586;2023-03-14T02:51:01;11.70;75.80
38183;DHT22;23991;52.430;10.586;2023-03-14T02:53:29;11.70;75.80
38183;DHT22;23991;52.430;10.586;2023-03-14T02:55:55;11.70;75.60
38183;DHT22;23991;52.430;10.586;2023-03-14T02:58:21;11.70;75.50
38183;DHT22;23991;52.430;10.586;2023-03-14T03:00:47;11.70;75.60
38183;DHT22;23991;52.430;10.586;2023-03-14T03:03:13;11.60;75.60
38183;DHT22;23991;52.430;10.586;2023-03-14T03:05:40;11.60;75.50
38183;DHT22;23991;52.430;10.586;2023-03-14T03:15:24;11.60;75.40
38183;DHT22;23991;52.430;10.586;2023-03-14T03:17:49;11.60;75.40
38183;DHT22;23991;52.430;10.586;2023-03-14T03:20:15;11.60;75.30
38183;DHT22;23991;52.430;10.586;2023-03-14T03:22:41;11.50;75.30
38183;DHT22;23991;52.430;10.586;2023-03-14T03:25:07;11.50;75.30
38183;DHT22;23991;52.430;10.586;2023-03-14T03:27:34;11.50;75.30
38183;DHT22;23991;52.430;10.586;2023-03-14T03:30:05;11.50;75.30
38183;DHT22;23991;52.430;10.586;2023-03-14T03:32:31;11.50;75.40
38183;DHT22;23991;52.430;10.586;2023-03-14T03:34:57;11.50;75.40
38183;DHT22;23991;52.430;10.586;2023-03-14T03:37:22;11.40;75.30
38183;DHT22;23991;52.430;10.586;2023-03-14T03:46:32;11.40;75.30
38183;DHT22;23991;52.430;10.586;2023-03-14T03:48:59;11.40;75.20
38183;DHT22;23991;52.430;10.586;2023-03-14T03:51:25;11.30;75.30
38183;DHT22;23991;52.430;10.586;2023-03-14T03:53:51;11.30;75.40
38183;DHT22;23991;52.430;10.586;2023-03-14T03:56:17;11.30;75.40
38183;DHT22;23991;52.430;10.586;2023-03-14T03:58:43;11.30;75.40
38183;DHT22;23991;52.430;10.586;2023-03-14T04:01:09;11.30;75.50
38183;DHT22;23991;52.430;10.586;2023-03-14T04:03:36;11.20;75.40
38183;DHT22;23991;52.430;10.586;2023-03-14T04:06:06;11.20;75.50
38183;DHT22;23991;52.430;10.586;2023-03-14T04:15:26;11.20;75.50
38183;DHT22;23991;52.430;10.586;2023-03-14T04:17:51;11.20;75.60
38183;DHT22;23991;52.430;10.586;2023-03-14T04:20:21;11.20;75.50
38183;DHT22;23991;52.430;10.586;2023-03-14T04:22:46;11.20;75.60
38183;DHT22;23991;52.430;10.586;2023-03-14T04:25:12;11.10;75.70
38183;DHT22;23991;52.430;10.586;2023-03-14T04:27:38;11.10;75.60
38183;DHT22;23991;52.430;10.586;2023-03-14T04:30:04;11.10;75.60
38183;DHT22;23991;52.430;10.586;2023-03-14T04:32:30;11.10;75.70
38183;DHT22;23991;52.430;10.586;2023-03-14T04:34:55;11.10;75.70
38183;DHT22;23991;52.430;10.586;2023-03-14T04:47:51;11.10;76.00
38183;DHT22;23991;52.430;10.586;2023-03-14T04:50:17;11.10;76.10
38183;DHT22;23991;52.430;10.586;2023-03-14T04:52:42;11.10;76.00
38183;DHT22;23991;52.430;10.586;2023-03-14T04:55:08;11.10;76.00
38183;DHT22;23991;52.430;10.586;2023-03-14T04:57:34;11.10;76.20
38183;DHT22;23991;52.430;10.586;2023-03-14T04:59:59;11.00;75.90
38183;DHT22;23991;52.430;10.586;2023-03-14T05:02:25;11.00;75.60
38183;DHT22;23991;52.430;10.586;2023-03-14T05:04:51;11.00;75.00
38183;DHT22;23991;52.430;10.586;2023-03-14T05:17:23;10.90;75.00
38183;DHT22;23991;52.430;10.586;2023-03-14T05:19:48;10.90;75.10
38183;DHT22;23991;52.430;10.586;2023-03-14T05:22:14;10.90;75.40
38183;DHT22;23991;52.430;10.586;2023-03-14T05:24:40;10.80;75.80
38183;DHT22;23991;52.430;10.586;2023-03-14T05:27:06;10.80;76.20
38183;DHT22;23991;52.430;10.586;2023-03-14T05:29:31;10.80;76.70
38183;DHT22;23991;52.430;10.586;2023-03-14T05:31:57;10.80;76.90
38183;DHT22;23991;52.430;10.586;2023-03-14T05:34:22;10.80;77.00
38183;DHT22;23991;52.430;10.586;2023-03-14T05:36:48;10.70;77.20
38183;DHT22;23991;52.430;10.586;2023-03-14T05:45:58;10.80;77.00
38183;DHT22;23991;52.430;10.586;2023-03-14T05:48:23;10.70;77.00
38183;DHT22;23991;52.430;10.586;2023-03-14T05:50:55;10.70;76.90
38183;DHT22;23991;52.430;10.586;2023-03-14T05:53:20;10.70;76.80
38183;DHT22;23991;52.430;10.586;2023-03-14T05:55:50;10.70;76.70
38183;DHT22;23991;52.430;10.586;2023-03-14T05:58:15;10.70;76.80
38183;DHT22;23991;52.430;10.586;2023-03-14T06:00:42;10.70;76.70
38183;DHT22;23991;52.430;10.586;2023-03-14T06:03:08;10.70;76.80
38183;DHT22;23991;52.430;10.586;2023-03-14T06:05:33;10.70;76.80
38183;DHT22;23991;52.430;10.586;2023-03-14T06:08:00;10.80;76.80
38183;DHT22;23991;52.430;10.586;2023-03-14T06:10:26;10.80;76.60
38183;DHT22;23991;52.430;10.586;2023-03-14T06:12:52;10.80;76.40
38183;DHT22;23991;52.430;10.586;2023-03-14T06:15:17;10.90;76.20
38183;DHT22;23991;52.430;10.586;2023-03-14T06:17:43;10.90;75.60
38183;DHT22;23991;52.430;10.586;2023-03-14T06:20:09;10.90;75.40
38183;DHT22;23991;52.430;10.586;2023-03-14T06:22:35;10.90;75.20
38183;DHT22;23991;52.430;10.586;2023-03-14T06:25:00;11.10;75.10
38183;DHT22;23991;52.430;10.586;2023-03-14T06:27:26;11.10;74.80
38183;DHT22;23991;52.430;10.586;2023-03-14T06:29:52;11.20;74.40
38183;DHT22;23991;52.430;10.586;2023-03-14T06:32:17;11.30;74.20
38183;DHT22;23991;52.430;10.586;2023-03-14T06:34:43;11.40;73.60
38183;DHT22;23991;52.430;10.586;2023-03-14T06:37:09;11.50;73.40
38183;DHT22;23991;52.430;10.586;2023-03-14T06:46:18;11.90;71.80
38183;DHT22;23991;52.430;10.586;2023-03-14T06:48:44;11.90;71.70
38183;DHT22;23991;52.430;10.586;2023-03-14T06:51:10;12.10;71.40
38183;DHT22;23991;52.430;10.586;2023-03-14T06:53:35;12.20;71.30
38183;DHT22;23991;52.430;10.586;2023-03-14T06:56:01;12.40;70.50
38183;DHT22;23991;52.430;10.586;2023-03-14T06:58:27;12.50;70.10
38183;DHT22;23991;52.430;10.586;2023-03-14T07:00:53;12.70;69.60
38183;DHT22;23991;52.430;10.586;2023-03-14T07:03:19;12.90;68.60
38183;DHT22;23991;52.430;10.586;2023-03-14T07:05:45;13.10;67.90
38183;DHT22;23991;52.430;10.586;2023-03-14T07:15:29;13.80;64.70
38183;DHT22;23991;52.430;10.586;2023-03-14T07:17:55;14.10;63.80
38183;DHT22;23991;52.430;10.586;2023-03-14T07:20:20;14.30;62.80
38183;DHT22;23991;52.430;10.586;2023-03-14T07:22:47;14.40;62.40
38183;DHT22;23991;52.430;10.586;2023-03-14T07:25:14;14.40;62.10
38183;DHT22;23991;52.430;10.586;2023-03-14T07:27:39;14.40;61.50
38183;DHT22;23991;52.430;10.586;2023-03-14T07:30:05;14.60;61.50
38183;DHT22;23991;52.430;10.586;2023-03-14T07:32:32;14.80;61.00
38183;DHT22;23991;52.430;10.586;2023-03-14T07:34:57;15.10;60.70
38183;DHT22;23991;52.430;10.586;2023-03-14T07:47:29;16.30;55.90
38183;DHT22;23991;52.430;10.586;2023-03-14T07:49:54;16.40;55.30
38183;DHT22;23991;52.430;10.586;2023-03-14T07:52:20;16.30;55.70
38183;DHT22;23991;52.430;10.586;2023-03-14T07:54:46;16.50;55.20
38183;DHT22;23991;52.430;10.586;2023-03-14T07:57:11;16.70;55.10
38183;DHT22;23991;52.430;10.586;2023-03-14T07:59:37;16.80;54.40
38183;DHT22;23991;52.430;10.586;2023-03-14T08:02:02;16.80;54.50
38183;DHT22;23991;52.430;10.586;2023-03-14T08:04:32;16.70;54.80
38183;DHT22;23991;52.430;10.586;2023-03-14T08:07:00;16.40;55.60
38183;DHT22;23991;52.430;10.586;2023-03-14T08:09:32;16.30;55.80
38183;DHT22;23991;52.430;10.586;2023-03-14T08:12:01;16.30;56.10
38183;DHT22;23991;52.430;10.586;2023-03-14T08:14:26;16.40;56.20
38183;DHT22;23991;52.430;10.586;2023-03-14T08:16:54;16.40;56.50
38183;DHT22;23991;52.430;10.586;2023-03-14T08:19:19;16.70;55.60
38183;DHT22;23991;52.430;10.586;2023-03-14T08:25:32;16.90;55.20
38183;DHT22;23991;52.430;10.586;2023-03-14T08:27:58;17.30;54.50
38183;DHT22;23991;52.430;10.586;2023-03-14T08:30:24;17.50;53.40
38183;DHT22;23991;52.430;10.586;2023-03-14T08:32:50;17.70;53.40
38183;DHT22;23991;52.430;10.586;2023-03-14T08:35:16;17.80;53.10
38183;DHT22;23991;52.430;10.586;2023-03-14T08:37:42;17.90;52.60
38183;DHT22;23991;52.430;10.586;2023-03-14T08:40:08;17.80;52.60
38183;DHT22;23991;52.430;10.586;2023-03-14T08:42:36;17.80;53.00
38183;DHT22;23991;52.430;10.586;2023-03-14T08:45:02;17.80;53.10
38183;DHT22;23991;52.430;10.586;2023-03-14T08:57:34;17.10;54.80
38183;DHT22;23991;52.430;10.586;2023-03-14T09:00:00;17.20;55.00
38183;DHT22;23991;52.430;10.586;2023-03-14T09:02:26;17.20;55.10
38183;DHT22;23991;52.430;10.586;2023-03-14T09:04:52;17.00;55.70
38183;DHT22;23991;52.430;10.586;2023-03-14T09:07:18;16.90;56.50
38183;DHT22;23991;52.430;10.586;2023-03-14T09:09:44;16.70;57.40
38183;DHT22;23991;52.430;10.586;2023-03-14T09:12:10;16.70;58.50
38183;DHT22;23991;52.430;10.586;2023-03-14T09:14:35;16.50;59.20
38183;DHT22;23991;52.430;10.586;2023-03-14T09:23:46;16.70;60.30
38183;DHT22;23991;52.430;10.586;2023-03-14T09:26:11;16.30;60.70
38183;DHT22;23991;52.430;10.586;2023-03-14T09:28:37;16.50;61.00
38183;DHT22;23991;52.430;10.586;2023-03-14T09:31:11;16.60;60.90
38183;DHT22;23991;52.430;10.586;2023-03-14T09:33:37;16.80;60.70
38183;DHT22;23991;52.430;10.586;2023-03-14T09:36:04;16.90;61.00
38183;DHT22;23991;52.430;10.586;2023-03-14T09:38:30;17.20;60.40
38183;DHT22;23991;52.430;10.586;2023-03-14T09:40:57;17.60;58.50
38183;DHT22;23991;52.430;10.586;2023-03-14T09:43:24;17.80;57.70
38183;DHT22;23991;52.430;10.586;2023-03-14T23:48:35;3.80;66.90
38183;DHT22;23991;52.430;10.586;2023-03-14T23:51:14;3.80;67.00
